Time,TemperatureF,DewpointF,PressureIn,WindDirection,WindDirectionDegrees,WindSpeedMPH,WindSpeedGustMPH,Humidity,HourlyPrecipIn,Conditions,Clouds,dailyrainin,SoftwareType,DateUTC
2013-04-30 00:13:00,59.3,47.0,29.79,North,11,0.0,1.0,64,0.00,,,0.00,weatherlink.com 1.10,2013-04-30 07:13:00,
2013-04-30 00:28:00,58.7,47.0,29.79,North,11,1.0,1.0,65,0.00,,,0.00,weatherlink.com 1.10,2013-04-30 07:28:00,
2013-04-30 00:43:00,58.0,47.0,29.79,North,11,0.0,1.0,66,0.00,,,0.00,weatherlink.com 1.10,2013-04-30 07:43:00,
2013-04-30 00:58:00,57.6,47.0,29.79,North,11,0.0,1.0,67,0.00,,,0.00,weatherlink.com 1.10,2013-04-30 07:58:00,
2013-04-30 01:13:00,57.0,46.0,29.79,North,11,0.0,0.0,68,0.00,,,0.00,weatherlink.com 1.10,2013-04-30 08:13:00,
2013-04-30 01:28:00,56.5,46.0,29.79,North,11,0.0,0.0,69,0.00,,,0.00,weatherlink.com 1.10,2013-04-30 08:28:00,
2013-04-30 01:43:00,55.8,47.0,29.78,North,11,0.0,0.0,71,0.00,,,0.00,weatherlink.com 1.10,2013-04-30 08:43:00,
2013-04-30 01:58:00,55.3,47.0,29.78,North,11,0.0,0.0,73,0.00,,,0.00,weatherlink.com 1.10,2013-04-30 08:58:00,
2013-04-30 02:13:00,54.9,46.0,29.79,North,11,0.0,0.0,73,0.00,,,0.00,weatherlink.com 1.10,2013-04-30 09:13:00,
2013-04-30 02:28:00,54.7,47.0,29.79,North,11,0.0,1.0,74,0.00,,,0.00,weatherlink.com 1.10,2013-04-30 09:28:00,
2013-04-30 02:43:00,54.7,47.0,29.78,North,11,0.0,1.0,75,0.00,,,0.00,weatherlink.com 1.10,2013-04-30 09:43:00,
2013-04-30 02:58:00,54.2,47.0,29.78,North,11,0.0,1.0,76,0.00,,,0.00,weatherlink.com 1.10,2013-04-30 09:58:00,
2013-04-30 03:13:00,53.8,47.0,29.78,North,11,0.0,1.0,77,0.00,,,0.00,weatherlink.com 1.10,2013-04-30 10:13:00,
2013-04-30 03:28:00,53.5,47.0,29.78,North,11,0.0,0.0,79,0.00,,,0.00,weatherlink.com 1.10,2013-04-30 10:28:00,
2013-04-30 03:43:00,53.2,47.0,29.78,North,11,0.0,0.0,79,0.00,,,0.00,weatherlink.com 1.10,2013-04-30 10:43:00,
2013-04-30 03:58:00,52.8,47.0,29.78,North,11,0.0,0.0,80,0.00,,,0.00,weatherlink.com 1.10,2013-04-30 10:58:00,
2013-04-30 04:13:00,52.5,47.0,29.79,North,11,0.0,0.0,80,0.00,,,0.00,weatherlink.com 1.10,2013-04-30 11:13:00,
2013-04-30 04:28:00,52.4,46.0,29.79,North,11,0.0,1.0,80,0.00,,,0.00,weatherlink.com 1.10,2013-04-30 11:28:00,
2013-04-30 04:43:00,52.2,46.0,29.79,North,11,0.0,0.0,79,0.00,,,0.00,weatherlink.com 1.10,2013-04-30 11:43:00,
2013-04-30 04:58:00,52.0,46.0,29.78,North,11,0.0,1.0,79,0.00,,,0.00,weatherlink.com 1.10,2013-04-30 11:58:00,
2013-04-30 05:13:00,51.6,46.0,29.79,North,11,0.0,0.0,80,0.00,,,0.00,weatherlink.com 1.10,2013-04-30 12:13:00,
2013-04-30 05:28:00,51.1,45.0,29.79,North,11,0.0,0.0,81,0.00,,,0.00,weatherlink.com 1.10,2013-04-30 12:28:00,
2013-04-30 05:43:00,50.9,46.0,29.79,North,11,0.0,0.0,83,0.00,,,0.00,weatherlink.com 1.10,2013-04-30 12:43:00,
2013-04-30 05:58:00,50.7,46.0,29.79,North,11,0.0,0.0,84,0.00,,,0.00,weatherlink.com 1.10,2013-04-30 12:58:00,
2013-04-30 06:13:00,50.8,46.0,29.79,North,11,0.0,1.0,84,0.00,,,0.00,weatherlink.com 1.10,2013-04-30 13:13:00,
2013-04-30 06:28:00,50.9,46.0,29.80,North,11,0.0,1.0,82,0.00,,,0.00,weatherlink.com 1.10,2013-04-30 13:28:00,
2013-04-30 06:44:00,50.8,46.0,29.81,North,11,0.0,0.0,83,0.00,,,0.00,weatherlink.com 1.10,2013-04-30 13:44:00,
2013-04-30 06:59:00,51.6,47.0,29.82,North,11,0.0,2.0,83,0.00,,,0.00,weatherlink.com 1.10,2013-04-30 13:59:00,
2013-04-30 07:14:00,53.3,47.0,29.82,North,5,1.0,3.0,80,0.00,,,0.00,weatherlink.com 1.10,2013-04-30 14:14:00,
2013-04-30 07:29:00,54.8,48.0,29.83,North,5,0.0,3.0,77,0.00,,,0.00,weatherlink.com 1.10,2013-04-30 14:29:00,
2013-04-30 07:44:00,56.6,49.0,29.82,NE,42,0.0,2.0,75,0.00,,,0.00,weatherlink.com 1.10,2013-04-30 14:44:00,
2013-04-30 07:59:00,57.7,50.0,29.83,ENE,74,1.0,3.0,75,0.00,,,0.00,weatherlink.com 1.10,2013-04-30 14:59:00,
2013-04-30 08:14:00,58.2,51.0,29.82,SE,146,0.0,4.0,76,0.00,,,0.00,weatherlink.com 1.10,2013-04-30 15:14:00,
2013-04-30 08:29:00,59.8,52.0,29.82,ESE,109,3.0,3.0,74,0.00,,,0.00,weatherlink.com 1.10,2013-04-30 15:29:00,
2013-04-30 08:44:00,61.7,52.0,29.82,ESE,117,1.0,4.0,71,0.00,,,0.00,weatherlink.com 1.10,2013-04-30 15:44:00,
2013-04-30 08:59:00,63.5,52.0,29.82,East,82,1.0,2.0,67,0.00,,,0.00,weatherlink.com 1.10,2013-04-30 15:59:00,
2013-04-30 09:14:00,64.5,51.0,29.82,North,5,3.0,5.0,63,0.00,,,0.00,weatherlink.com 1.10,2013-04-30 16:14:00,
2013-04-30 09:29:00,64.4,52.0,29.83,NNE,28,2.0,6.0,65,0.00,,,0.00,weatherlink.com 1.10,2013-04-30 16:29:00,
2013-04-30 09:44:00,64.8,51.0,29.84,NW,304,8.0,9.0,61,0.00,,,0.00,weatherlink.com 1.10,2013-04-30 16:44:00,
2013-04-30 09:59:00,64.0,50.0,29.84,NNW,331,3.0,7.0,61,0.00,,,0.00,weatherlink.com 1.10,2013-04-30 16:59:00,
2013-04-30 10:14:00,65.8,50.0,29.84,NNE,30,1.0,5.0,58,0.00,,,0.00,weatherlink.com 1.10,2013-04-30 17:14:00,
2013-04-30 10:29:00,67.2,50.0,29.84,North,5,1.0,6.0,54,0.00,,,0.00,weatherlink.com 1.10,2013-04-30 17:29:00,
2013-04-30 10:44:00,69.0,50.0,29.84,NNE,32,1.0,4.0,52,0.00,,,0.00,weatherlink.com 1.10,2013-04-30 17:44:00,
2013-04-30 10:59:00,69.8,50.0,29.84,NNE,27,2.0,6.0,50,0.00,,,0.00,weatherlink.com 1.10,2013-04-30 17:59:00,
2013-04-30 11:14:00,71.4,46.0,29.84,North,355,4.0,6.0,41,0.00,,,0.00,weatherlink.com 1.10,2013-04-30 18:14:00,
2013-04-30 11:29:00,72.5,49.0,29.83,NNE,29,4.0,6.0,43,0.00,,,0.00,weatherlink.com 1.10,2013-04-30 18:29:00,
2013-04-30 11:44:00,73.0,44.0,29.83,North,355,6.0,8.0,36,0.00,,,0.00,weatherlink.com 1.10,2013-04-30 18:44:00,
2013-04-30 11:59:00,73.2,46.0,29.83,NNW,338,4.0,9.0,38,0.00,,,0.00,weatherlink.com 1.10,2013-04-30 18:59:00,
2013-04-30 12:14:00,73.8,46.0,29.83,NW,312,5.0,8.0,37,0.00,,,0.00,weatherlink.com 1.10,2013-04-30 19:14:00,
2013-04-30 12:29:00,74.4,44.0,29.82,WNW,298,3.0,8.0,34,0.00,,,0.00,weatherlink.com 1.10,2013-04-30 19:29:00,
2013-04-30 12:44:00,74.9,42.0,29.82,NW,326,4.0,9.0,31,0.00,,,0.00,weatherlink.com 1.10,2013-04-30 19:44:00,
2013-04-30 13:00:00,76.3,42.0,29.82,North,5,5.0,8.0,29,0.00,,,0.00,weatherlink.com 1.10,2013-04-30 20:00:00,
2013-04-30 13:15:00,77.0,40.0,29.81,North,350,4.0,9.0,26,0.00,,,0.00,weatherlink.com 1.10,2013-04-30 20:15:00,
2013-04-30 13:30:00,77.5,39.0,29.81,North,11,2.0,9.0,25,0.00,,,0.00,weatherlink.com 1.10,2013-04-30 20:30:00,
2013-04-30 13:45:00,78.0,38.0,29.81,West,277,4.0,9.0,24,0.00,,,0.00,weatherlink.com 1.10,2013-04-30 20:45:00,
2013-04-30 14:00:00,78.5,37.0,29.81,NNW,345,6.0,8.0,22,0.00,,,0.00,weatherlink.com 1.10,2013-04-30 21:00:00,
2013-04-30 14:15:00,79.1,36.0,29.80,NNW,336,5.0,9.0,21,0.00,,,0.00,weatherlink.com 1.10,2013-04-30 21:15:00,
2013-04-30 14:30:00,79.5,37.0,29.80,NW,323,6.0,8.0,22,0.00,,,0.00,weatherlink.com 1.10,2013-04-30 21:30:00,
2013-04-30 14:45:00,79.7,36.0,29.79,NNE,19,4.0,8.0,21,0.00,,,0.00,weatherlink.com 1.10,2013-04-30 21:45:00,
2013-04-30 15:00:00,80.9,37.0,29.79,WSW,248,1.0,8.0,21,0.00,,,0.00,weatherlink.com 1.10,2013-04-30 22:00:00,
2013-04-30 15:15:00,80.7,36.0,29.79,North,355,4.0,10.0,20,0.00,,,0.00,weatherlink.com 1.10,2013-04-30 22:15:00,
2013-04-30 15:30:00,81.4,43.0,29.78,North,355,3.0,7.0,26,0.00,,,0.00,weatherlink.com 1.10,2013-04-30 22:30:00,
2013-04-30 15:45:00,80.7,44.0,29.78,West,271,3.0,9.0,27,0.00,,,0.00,weatherlink.com 1.10,2013-04-30 22:45:00,
2013-04-30 16:00:00,80.5,40.0,29.78,NNW,342,6.0,9.0,24,0.00,,,0.00,weatherlink.com 1.10,2013-04-30 23:00:00,
2013-04-30 16:15:00,79.8,41.0,29.78,North,355,5.0,12.0,25,0.00,,,0.00,weatherlink.com 1.10,2013-04-30 23:15:00,
2013-04-30 16:30:00,78.8,44.0,29.77,NW,323,5.0,11.0,29,0.00,,,0.00,weatherlink.com 1.10,2013-04-30 23:30:00,
2013-04-30 16:45:00,78.9,44.0,29.77,WNW,288,2.0,9.0,29,0.00,,,0.00,weatherlink.com 1.10,2013-04-30 23:45:00,
2013-04-30 17:00:00,78.2,44.0,29.77,NW,306,7.0,11.0,30,0.00,,,0.00,weatherlink.com 1.10,2013-05-01 00:00:00,
2013-04-30 17:15:00,77.9,41.0,29.77,West,262,5.0,10.0,27,0.00,,,0.00,weatherlink.com 1.10,2013-05-01 00:15:00,
2013-04-30 17:30:00,78.0,42.0,29.77,WNW,288,3.0,11.0,28,0.00,,,0.00,weatherlink.com 1.10,2013-05-01 00:30:00,
2013-04-30 17:45:00,78.1,41.0,29.76,WNW,283,0.0,8.0,27,0.00,,,0.00,weatherlink.com 1.10,2013-05-01 00:45:00,
2013-04-30 18:00:00,78.2,41.0,29.77,WNW,302,4.0,9.0,26,0.00,,,0.00,weatherlink.com 1.10,2013-05-01 01:00:00,
2013-04-30 18:15:00,77.5,42.0,29.77,West,263,10.0,11.0,28,0.00,,,0.00,weatherlink.com 1.10,2013-05-01 01:15:00,
2013-04-30 18:30:00,76.5,43.0,29.77,WNW,300,3.0,10.0,30,0.00,,,0.00,weatherlink.com 1.10,2013-05-01 01:30:00,
2013-04-30 18:45:00,76.0,41.0,29.77,West,273,5.0,7.0,28,0.00,,,0.00,weatherlink.com 1.10,2013-05-01 01:45:00,
2013-04-30 19:00:00,75.7,40.0,29.77,NW,309,2.0,4.0,28,0.00,,,0.00,weatherlink.com 1.10,2013-05-01 02:00:00,
2013-04-30 19:15:00,75.6,39.0,29.77,NW,320,0.0,5.0,27,0.00,,,0.00,weatherlink.com 1.10,2013-05-01 02:15:00,
2013-04-30 19:30:00,74.7,38.0,29.77,WNW,282,0.0,4.0,26,0.00,,,0.00,weatherlink.com 1.10,2013-05-01 02:30:00,
2013-04-30 19:45:00,73.7,39.0,29.77,North,5,1.0,3.0,28,0.00,,,0.00,weatherlink.com 1.10,2013-05-01 02:45:00,
2013-04-30 20:00:00,72.6,39.0,29.78,North,360,1.0,5.0,29,0.00,,,0.00,weatherlink.com 1.10,2013-05-01 03:00:00,
2013-04-30 20:15:00,71.6,45.0,29.78,North,355,0.0,3.0,39,0.00,,,0.00,weatherlink.com 1.10,2013-05-01 03:15:00,
2013-04-30 20:30:00,68.6,47.0,29.79,NNE,23,0.0,4.0,46,0.00,,,0.00,weatherlink.com 1.10,2013-05-01 03:30:00,
2013-04-30 20:45:00,66.5,47.0,29.80,NNE,17,0.0,4.0,49,0.00,,,0.00,weatherlink.com 1.10,2013-05-01 03:45:00,
2013-04-30 21:00:00,65.1,46.0,29.80,NNE,17,0.0,1.0,50,0.00,,,0.00,weatherlink.com 1.10,2013-05-01 04:00:00,
2013-04-30 21:15:00,63.8,46.0,29.80,NNE,17,0.0,1.0,53,0.00,,,0.00,weatherlink.com 1.10,2013-05-01 04:15:00,
2013-04-30 21:30:00,62.9,47.0,29.81,NNE,17,1.0,2.0,56,0.00,,,0.00,weatherlink.com 1.10,2013-05-01 04:30:00,
2013-04-30 21:45:00,62.3,46.0,29.81,NNE,17,0.0,1.0,56,0.00,,,0.00,weatherlink.com 1.10,2013-05-01 04:45:00,
2013-04-30 22:00:00,61.7,46.0,29.82,NNE,17,0.0,1.0,56,0.00,,,0.00,weatherlink.com 1.10,2013-05-01 05:00:00,
2013-04-30 22:15:00,61.1,45.0,29.82,NNE,17,0.0,1.0,55,0.00,,,0.00,weatherlink.com 1.10,2013-05-01 05:15:00,
2013-04-30 22:30:00,60.3,45.0,29.82,NNE,17,0.0,1.0,57,0.00,,,0.00,weatherlink.com 1.10,2013-05-01 05:30:00,
2013-04-30 22:45:00,59.6,45.0,29.82,NNE,17,0.0,1.0,59,0.00,,,0.00,weatherlink.com 1.10,2013-05-01 05:45:00,
2013-04-30 23:00:00,59.3,44.0,29.82,NNE,17,0.0,1.0,58,0.00,,,0.00,weatherlink.com 1.10,2013-05-01 06:00:00,
2013-04-30 23:15:00,58.7,45.0,29.82,NNE,17,0.0,1.0,60,0.00,,,0.00,weatherlink.com 1.10,2013-05-01 06:15:00,
2013-04-30 23:30:00,60.4,38.0,29.82,NW,314,2.0,3.0,44,0.00,,,0.00,weatherlink.com 1.10,2013-05-01 06:30:00,
2013-04-30 23:45:00,65.3,33.0,29.82,WNW,303,1.0,3.0,30,0.00,,,0.00,weatherlink.com 1.10,2013-05-01 06:45:00,